sensor_id;sensor_type;location;lat;lon;timestamp;P1;durP1;ratioP1;P2;durP2;ratioP2
78877;SDS011;68257;43.514;1.498;2023-03-03T00:00:25;36.40;;;21.20;;
78877;SDS011;68257;43.514;1.498;2023-03-03T00:02:50;37.50;;;21.48;;
78877;SDS011;68257;43.514;1.498;2023-03-03T00:05:16;42.70;;;23.30;;
78877;SDS011;68257;43.514;1.498;2023-03-03T00:07:45;44.33;;;24.83;;
78877;SDS011;68257;43.514;1.498;2023-03-03T00:10:12;37.25;;;22.42;;
78877;SDS011;68257;43.514;1.498;2023-03-03T00:12:44;36.17;;;20.98;;
78877;SDS011;68257;43.514;1.498;2023-03-03T00:15:15;36.03;;;21.42;;
78877;SDS011;68257;43.514;1.498;2023-03-03T00:17:42;36.70;;;21.20;;
78877;SDS011;68257;43.514;1.498;2023-03-03T00:20:45;35.27;;;22.07;;
78877;SDS011;68257;43.514;1.498;2023-03-03T00:25:42;41.92;;;22.98;;
78877;SDS011;68257;43.514;1.498;2023-03-03T00:30:49;36.63;;;21.65;;
78877;SDS011;68257;43.514;1.498;2023-03-03T00:36:43;38.05;;;21.88;;
78877;SDS011;68257;43.514;1.498;2023-03-03T00:38:47;35.13;;;20.33;;
78877;SDS011;68257;43.514;1.498;2023-03-03T00:41:15;37.37;;;20.30;;
78877;SDS011;68257;43.514;1.498;2023-03-03T00:43:52;34.75;;;20.50;;
78877;SDS011;68257;43.514;1.498;2023-03-03T00:46:18;36.17;;;21.98;;
78877;SDS011;68257;43.514;1.498;2023-03-03T00:48:47;39.00;;;20.65;;
78877;SDS011;68257;43.514;1.498;2023-03-03T00:51:32;36.53;;;21.52;;
78877;SDS011;68257;43.514;1.498;2023-03-03T00:54:00;38.97;;;21.97;;
78877;SDS011;68257;43.514;1.498;2023-03-03T00:56:26;37.22;;;21.70;;
78877;SDS011;68257;43.514;1.498;2023-03-03T00:58:51;36.50;;;21.83;;
78877;SDS011;68257;43.514;1.498;2023-03-03T01:01:17;36.43;;;22.03;;
78877;SDS011;68257;43.514;1.498;2023-03-03T01:03:43;40.17;;;23.08;;
78877;SDS011;68257;43.514;1.498;2023-03-03T01:06:09;38.88;;;21.70;;
78877;SDS011;68257;43.514;1.498;2023-03-03T01:08:35;38.93;;;22.30;;
78877;SDS011;68257;43.514;1.498;2023-03-03T01:11:08;40.08;;;22.45;;
78877;SDS011;68257;43.514;1.498;2023-03-03T01:13:37;37.87;;;22.07;;
78877;SDS011;68257;43.514;1.498;2023-03-03T01:16:04;38.85;;;22.25;;
78877;SDS011;68257;43.514;1.498;2023-03-03T01:18:30;38.03;;;21.13;;
78877;SDS011;68257;43.514;1.498;2023-03-03T01:20:56;38.17;;;21.83;;
78877;SDS011;68257;43.514;1.498;2023-03-03T01:23:21;34.40;;;20.58;;
78877;SDS011;68257;43.514;1.498;2023-03-03T01:25:46;36.87;;;21.63;;
78877;SDS011;68257;43.514;1.498;2023-03-03T01:28:12;35.27;;;20.90;;
78877;SDS011;68257;43.514;1.498;2023-03-03T01:30:39;36.05;;;21.55;;
78877;SDS011;68257;43.514;1.498;2023-03-03T01:33:04;33.27;;;19.90;;
78877;SDS011;68257;43.514;1.498;2023-03-03T01:35:30;36.47;;;21.80;;
78877;SDS011;68257;43.514;1.498;2023-03-03T01:37:55;38.63;;;22.40;;
78877;SDS011;68257;43.514;1.498;2023-03-03T01:40:23;37.60;;;21.13;;
78877;SDS011;68257;43.514;1.498;2023-03-03T01:42:50;37.33;;;22.05;;
78877;SDS011;68257;43.514;1.498;2023-03-03T01:45:23;36.55;;;21.48;;
78877;SDS011;68257;43.514;1.498;2023-03-03T01:47:55;35.88;;;20.98;;
78877;SDS011;68257;43.514;1.498;2023-03-03T01:50:29;34.75;;;21.00;;
78877;SDS011;68257;43.514;1.498;2023-03-03T01:52:56;37.73;;;21.17;;
78877;SDS011;68257;43.514;1.498;2023-03-03T01:55:24;36.25;;;20.58;;
78877;SDS011;68257;43.514;1.498;2023-03-03T01:57:58;39.78;;;22.08;;
78877;SDS011;68257;43.514;1.498;2023-03-03T02:00:26;35.25;;;20.88;;
78877;SDS011;68257;43.514;1.498;2023-03-03T02:02:53;35.70;;;21.42;;
78877;SDS011;68257;43.514;1.498;2023-03-03T02:05:19;37.33;;;21.67;;
78877;SDS011;68257;43.514;1.498;2023-03-03T02:07:44;37.85;;;21.33;;
78877;SDS011;68257;43.514;1.498;2023-03-03T02:10:11;37.72;;;22.50;;
78877;SDS011;68257;43.514;1.498;2023-03-03T02:12:42;37.95;;;21.88;;
78877;SDS011;68257;43.514;1.498;2023-03-03T02:15:28;37.55;;;23.10;;
78877;SDS011;68257;43.514;1.498;2023-03-03T02:17:56;37.33;;;21.70;;
78877;SDS011;68257;43.514;1.498;2023-03-03T02:23:42;39.70;;;22.25;;
78877;SDS011;68257;43.514;1.498;2023-03-03T02:28:22;37.47;;;21.02;;
78877;SDS011;68257;43.514;1.498;2023-03-03T02:30:49;41.43;;;23.10;;
78877;SDS011;68257;43.514;1.498;2023-03-03T02:33:14;37.97;;;21.90;;
78877;SDS011;68257;43.514;1.498;2023-03-03T02:35:40;35.83;;;21.33;;
78877;SDS011;68257;43.514;1.498;2023-03-03T02:38:17;39.47;;;22.50;;
78877;SDS011;68257;43.514;1.498;2023-03-03T02:40:58;38.25;;;21.98;;
78877;SDS011;68257;43.514;1.498;2023-03-03T02:43:32;37.80;;;23.07;;
78877;SDS011;68257;43.514;1.498;2023-03-03T02:46:09;41.38;;;23.67;;
78877;SDS011;68257;43.514;1.498;2023-03-03T02:48:35;50.17;;;26.57;;
78877;SDS011;68257;43.514;1.498;2023-03-03T02:51:00;52.35;;;27.25;;
78877;SDS011;68257;43.514;1.498;2023-03-03T02:53:25;53.57;;;27.13;;
78877;SDS011;68257;43.514;1.498;2023-03-03T02:55:51;54.00;;;28.77;;
78877;SDS011;68257;43.514;1.498;2023-03-03T02:58:16;52.97;;;28.10;;
78877;SDS011;68257;43.514;1.498;2023-03-03T03:00:42;50.20;;;26.77;;
78877;SDS011;68257;43.514;1.498;2023-03-03T03:03:07;43.77;;;24.30;;
78877;SDS011;68257;43.514;1.498;2023-03-03T03:05:32;42.93;;;25.00;;
78877;SDS011;68257;43.514;1.498;2023-03-03T03:07:58;42.17;;;24.03;;
78877;SDS011;68257;43.514;1.498;2023-03-03T03:10:23;40.92;;;23.77;;
78877;SDS011;68257;43.514;1.498;2023-03-03T03:12:48;42.63;;;24.60;;
78877;SDS011;68257;43.514;1.498;2023-03-03T03:15:14;39.80;;;23.27;;
78877;SDS011;68257;43.514;1.498;2023-03-03T03:17:40;40.03;;;23.40;;
78877;SDS011;68257;43.514;1.498;2023-03-03T03:20:05;39.38;;;23.10;;
78877;SDS011;68257;43.514;1.498;2023-03-03T03:22:31;41.23;;;23.50;;
78877;SDS011;68257;43.514;1.498;2023-03-03T03:24:56;43.72;;;23.95;;
78877;SDS011;68257;43.514;1.498;2023-03-03T03:27:22;41.50;;;22.97;;
78877;SDS011;68257;43.514;1.498;2023-03-03T03:29:47;42.70;;;23.70;;
78877;SDS011;68257;43.514;1.498;2023-03-03T03:32:13;39.60;;;23.63;;
78877;SDS011;68257;43.514;1.498;2023-03-03T03:34:38;41.30;;;23.83;;
78877;SDS011;68257;43.514;1.498;2023-03-03T03:37:03;47.92;;;24.13;;
78877;SDS011;68257;43.514;1.498;2023-03-03T03:39:29;42.23;;;25.10;;
78877;SDS011;68257;43.514;1.498;2023-03-03T03:41:54;44.73;;;24.63;;
78877;SDS011;68257;43.514;1.498;2023-03-03T03:44:20;44.50;;;24.50;;
78877;SDS011;68257;43.514;1.498;2023-03-03T03:46:47;43.20;;;24.42;;
78877;SDS011;68257;43.514;1.498;2023-03-03T03:49:13;43.27;;;24.33;;
78877;SDS011;68257;43.514;1.498;2023-03-03T03:51:38;43.40;;;24.33;;
78877;SDS011;68257;43.514;1.498;2023-03-03T03:54:05;42.03;;;24.30;;
78877;SDS011;68257;43.514;1.498;2023-03-03T03:56:31;41.17;;;23.70;;
78877;SDS011;68257;43.514;1.498;2023-03-03T03:58:57;42.45;;;24.08;;
78877;SDS011;68257;43.514;1.498;2023-03-03T04:01:22;43.90;;;23.90;;
78877;SDS011;68257;43.514;1.498;2023-03-03T04:03:47;42.13;;;24.20;;
78877;SDS011;68257;43.514;1.498;2023-03-03T04:06:13;42.37;;;24.40;;
78877;SDS011;68257;43.514;1.498;2023-03-03T04:08:39;43.85;;;24.63;;
78877;SDS011;68257;43.514;1.498;2023-03-03T04:11:04;40.77;;;23.33;;
78877;SDS011;68257;43.514;1.498;2023-03-03T04:13:29;43.17;;;23.97;;
78877;SDS011;68257;43.514;1.498;2023-03-03T04:15:56;42.63;;;23.95;;
78877;SDS011;68257;43.514;1.498;2023-03-03T04:18:21;41.00;;;23.77;;
78877;SDS011;68257;43.514;1.498;2023-03-03T04:20:46;38.83;;;23.87;;
78877;SDS011;68257;43.514;1.498;2023-03-03T04:23:12;47.80;;;24.47;;
78877;SDS011;68257;43.514;1.498;2023-03-03T04:25:38;43.80;;;24.25;;
78877;SDS011;68257;43.514;1.498;2023-03-03T04:28:04;43.75;;;25.17;;
78877;SDS011;68257;43.514;1.498;2023-03-03T04:30:30;53.07;;;28.17;;
78877;SDS011;68257;43.514;1.498;2023-03-03T04:32:55;56.27;;;28.80;;
78877;SDS011;68257;43.514;1.498;2023-03-03T04:35:20;52.43;;;27.33;;
78877;SDS011;68257;43.514;1.498;2023-03-03T04:37:46;49.45;;;27.05;;
78877;SDS011;68257;43.514;1.498;2023-03-03T04:40:11;51.57;;;26.03;;
78877;SDS011;68257;43.514;1.498;2023-03-03T04:42:37;46.97;;;25.90;;
78877;SDS011;68257;43.514;1.498;2023-03-03T04:45:03;45.20;;;24.57;;
78877;SDS011;68257;43.514;1.498;2023-03-03T04:47:28;46.45;;;24.73;;
78877;SDS011;68257;43.514;1.498;2023-03-03T04:49:54;43.72;;;23.95;;
78877;SDS011;68257;43.514;1.498;2023-03-03T04:52:20;44.47;;;23.87;;
78877;SDS011;68257;43.514;1.498;2023-03-03T04:54:45;50.33;;;26.97;;
78877;SDS011;68257;43.514;1.498;2023-03-03T04:57:10;46.53;;;26.80;;
78877;SDS011;68257;43.514;1.498;2023-03-03T04:59:36;45.57;;;25.70;;
78877;SDS011;68257;43.514;1.498;2023-03-03T05:02:01;45.67;;;25.47;;
78877;SDS011;68257;43.514;1.498;2023-03-03T05:04:28;49.33;;;26.45;;
78877;SDS011;68257;43.514;1.498;2023-03-03T05:06:54;46.70;;;26.15;;
78877;SDS011;68257;43.514;1.498;2023-03-03T05:09:21;42.13;;;23.43;;
78877;SDS011;68257;43.514;1.498;2023-03-03T05:11:46;40.42;;;22.80;;
78877;SDS011;68257;43.514;1.498;2023-03-03T05:14:12;39.97;;;23.27;;
78877;SDS011;68257;43.514;1.498;2023-03-03T05:16:37;40.97;;;23.50;;
78877;SDS011;68257;43.514;1.498;2023-03-03T05:19:03;37.37;;;22.07;;
78877;SDS011;68257;43.514;1.498;2023-03-03T05:21:28;41.23;;;21.70;;
78877;SDS011;68257;43.514;1.498;2023-03-03T05:23:54;41.83;;;23.13;;
78877;SDS011;68257;43.514;1.498;2023-03-03T05:26:19;38.77;;;23.67;;
78877;SDS011;68257;43.514;1.498;2023-03-03T05:28:44;43.33;;;23.53;;
78877;SDS011;68257;43.514;1.498;2023-03-03T05:31:10;45.63;;;23.67;;
78877;SDS011;68257;43.514;1.498;2023-03-03T05:33:35;42.27;;;24.47;;
78877;SDS011;68257;43.514;1.498;2023-03-03T05:36:01;40.92;;;23.05;;
78877;SDS011;68257;43.514;1.498;2023-03-03T05:38:26;42.97;;;24.43;;
78877;SDS011;68257;43.514;1.498;2023-03-03T05:40:52;39.37;;;21.60;;
78877;SDS011;68257;43.514;1.498;2023-03-03T05:43:18;39.95;;;22.23;;
78877;SDS011;68257;43.514;1.498;2023-03-03T05:45:44;38.37;;;22.83;;
78877;SDS011;68257;43.514;1.498;2023-03-03T05:48:09;40.92;;;22.60;;
78877;SDS011;68257;43.514;1.498;2023-03-03T05:50:35;42.07;;;22.93;;
78877;SDS011;68257;43.514;1.498;2023-03-03T05:53:01;39.22;;;23.50;;
78877;SDS011;68257;43.514;1.498;2023-03-03T05:55:27;42.63;;;23.17;;
78877;SDS011;68257;43.514;1.498;2023-03-03T05:57:52;39.10;;;22.20;;
78877;SDS011;68257;43.514;1.498;2023-03-03T06:00:18;38.53;;;22.00;;
78877;SDS011;68257;43.514;1.498;2023-03-03T06:02:43;41.45;;;23.73;;
78877;SDS011;68257;43.514;1.498;2023-03-03T06:05:09;38.73;;;22.10;;
78877;SDS011;68257;43.514;1.498;2023-03-03T06:07:35;40.20;;;23.10;;
78877;SDS011;68257;43.514;1.498;2023-03-03T06:10:01;37.77;;;22.70;;
78877;SDS011;68257;43.514;1.498;2023-03-03T06:12:27;39.53;;;22.33;;
78877;SDS011;68257;43.514;1.498;2023-03-03T06:14:52;37.40;;;22.80;;
78877;SDS011;68257;43.514;1.498;2023-03-03T06:17:18;39.57;;;22.87;;
78877;SDS011;68257;43.514;1.498;2023-03-03T06:19:43;38.53;;;23.07;;
78877;SDS011;68257;43.514;1.498;2023-03-03T06:22:08;39.38;;;22.52;;
78877;SDS011;68257;43.514;1.498;2023-03-03T06:24:34;37.60;;;22.03;;
78877;SDS011;68257;43.514;1.498;2023-03-03T06:26:59;38.03;;;22.20;;
78877;SDS011;68257;43.514;1.498;2023-03-03T06:29:25;43.25;;;23.45;;
78877;SDS011;68257;43.514;1.498;2023-03-03T06:31:52;40.73;;;22.63;;
78877;SDS011;68257;43.514;1.498;2023-03-03T06:34:17;41.25;;;23.55;;
78877;SDS011;68257;43.514;1.498;2023-03-03T06:36:43;41.13;;;23.63;;
78877;SDS011;68257;43.514;1.498;2023-03-03T06:39:08;39.50;;;22.73;;
78877;SDS011;68257;43.514;1.498;2023-03-03T06:41:34;42.25;;;22.58;;
78877;SDS011;68257;43.514;1.498;2023-03-03T06:44:00;40.10;;;22.37;;
78877;SDS011;68257;43.514;1.498;2023-03-03T06:46:25;39.33;;;22.50;;
78877;SDS011;68257;43.514;1.498;2023-03-03T06:48:51;37.35;;;22.70;;
78877;SDS011;68257;43.514;1.498;2023-03-03T06:53:53;41.33;;;22.77;;
78877;SDS011;68257;43.514;1.498;2023-03-03T06:56:21;42.58;;;23.45;;
78877;SDS011;68257;43.514;1.498;2023-03-03T06:58:52;39.75;;;23.15;;
78877;SDS011;68257;43.514;1.498;2023-03-03T07:01:18;41.30;;;23.58;;
78877;SDS011;68257;43.514;1.498;2023-03-03T07:03:44;42.70;;;23.30;;
78877;SDS011;68257;43.514;1.498;2023-03-03T07:08:48;44.70;;;23.52;;
78877;SDS011;68257;43.514;1.498;2023-03-03T07:11:18;41.53;;;23.27;;
78877;SDS011;68257;43.514;1.498;2023-03-03T07:13:46;42.33;;;24.02;;
78877;SDS011;68257;43.514;1.498;2023-03-03T07:16:13;44.55;;;24.50;;
78877;SDS011;68257;43.514;1.498;2023-03-03T07:21:20;42.67;;;23.52;;
78877;SDS011;68257;43.514;1.498;2023-03-03T07:24:48;38.67;;;22.35;;
78877;SDS011;68257;43.514;1.498;2023-03-03T07:27:36;39.95;;;22.00;;
78877;SDS011;68257;43.514;1.498;2023-03-03T07:29:44;38.85;;;22.60;;
78877;SDS011;68257;43.514;1.498;2023-03-03T07:32:34;38.80;;;22.73;;
78877;SDS011;68257;43.514;1.498;2023-03-03T07:35:03;41.20;;;23.33;;
78877;SDS011;68257;43.514;1.498;2023-03-03T07:37:44;42.80;;;22.67;;
78877;SDS011;68257;43.514;1.498;2023-03-03T07:40:44;40.93;;;22.80;;
78877;SDS011;68257;43.514;1.498;2023-03-03T07:43:19;37.28;;;21.92;;
78877;SDS011;68257;43.514;1.498;2023-03-03T07:45:53;40.10;;;23.42;;
78877;SDS011;68257;43.514;1.498;2023-03-03T07:48:35;41.55;;;23.75;;
78877;SDS011;68257;43.514;1.498;2023-03-03T07:51:11;38.97;;;22.33;;
78877;SDS011;68257;43.514;1.498;2023-03-03T07:53:39;41.17;;;22.33;;
78877;SDS011;68257;43.514;1.498;2023-03-03T07:56:11;40.63;;;23.80;;
78877;SDS011;68257;43.514;1.498;2023-03-03T07:58:40;40.33;;;23.87;;
78877;SDS011;68257;43.514;1.498;2023-03-03T08:03:55;43.40;;;23.45;;
78877;SDS011;68257;43.514;1.498;2023-03-03T08:06:34;43.80;;;24.43;;
78877;SDS011;68257;43.514;1.498;2023-03-03T08:09:24;37.25;;;22.67;;
78877;SDS011;68257;43.514;1.498;2023-03-03T08:11:54;39.30;;;23.35;;
78877;SDS011;68257;43.514;1.498;2023-03-03T08:14:27;39.50;;;23.20;;
78877;SDS011;68257;43.514;1.498;2023-03-03T08:16:54;37.33;;;23.38;;
78877;SDS011;68257;43.514;1.498;2023-03-03T08:19:21;39.93;;;23.70;;
78877;SDS011;68257;43.514;1.498;2023-03-03T08:21:46;43.47;;;24.00;;
78877;SDS011;68257;43.514;1.498;2023-03-03T08:24:12;39.67;;;23.97;;
78877;SDS011;68257;43.514;1.498;2023-03-03T08:26:37;39.55;;;22.75;;
78877;SDS011;68257;43.514;1.498;2023-03-03T08:29:03;37.13;;;22.50;;
78877;SDS011;68257;43.514;1.498;2023-03-03T08:31:28;39.07;;;23.70;;
78877;SDS011;68257;43.514;1.498;2023-03-03T08:33:54;38.47;;;23.33;;
78877;SDS011;68257;43.514;1.498;2023-03-03T08:36:19;39.20;;;23.48;;
78877;SDS011;68257;43.514;1.498;2023-03-03T08:38:45;37.97;;;22.50;;
78877;SDS011;68257;43.514;1.498;2023-03-03T08:41:11;35.65;;;22.40;;
78877;SDS011;68257;43.514;1.498;2023-03-03T08:43:36;38.07;;;23.33;;
78877;SDS011;68257;43.514;1.498;2023-03-03T08:46:02;37.87;;;21.93;;
78877;SDS011;68257;43.514;1.498;2023-03-03T08:48:29;38.30;;;23.08;;
78877;SDS011;68257;43.514;1.498;2023-03-03T08:50:55;37.80;;;23.33;;
78877;SDS011;68257;43.514;1.498;2023-03-03T08:53:20;37.77;;;23.03;;
78877;SDS011;68257;43.514;1.498;2023-03-03T08:55:47;36.15;;;22.25;;
78877;SDS011;68257;43.514;1.498;2023-03-03T08:58:13;38.40;;;23.63;;
78877;SDS011;68257;43.514;1.498;2023-03-03T09:00:39;40.78;;;24.63;;
78877;SDS011;68257;43.514;1.498;2023-03-03T09:03:05;37.50;;;24.40;;
78877;SDS011;68257;43.514;1.498;2023-03-03T09:05:32;39.15;;;24.08;;
78877;SDS011;68257;43.514;1.498;2023-03-03T09:07:58;38.95;;;24.35;;
78877;SDS011;68257;43.514;1.498;2023-03-03T09:10:26;38.47;;;23.02;;
78877;SDS011;68257;43.514;1.498;2023-03-03T09:12:53;37.38;;;24.15;;
78877;SDS011;68257;43.514;1.498;2023-03-03T09:17:49;36.92;;;23.67;;
78877;SDS011;68257;43.514;1.498;2023-03-03T09:20:23;36.22;;;23.42;;
78877;SDS011;68257;43.514;1.498;2023-03-03T09:22:53;36.67;;;23.95;;
78877;SDS011;68257;43.514;1.498;2023-03-03T09:25:30;40.90;;;23.70;;
78877;SDS011;68257;43.514;1.498;2023-03-03T09:27:58;36.38;;;22.88;;
78877;SDS011;68257;43.514;1.498;2023-03-03T09:30:39;37.17;;;23.98;;
78877;SDS011;68257;43.514;1.498;2023-03-03T09:33:21;35.17;;;23.05;;
78877;SDS011;68257;43.514;1.498;2023-03-03T09:38:46;38.17;;;25.02;;
78877;SDS011;68257;43.514;1.498;2023-03-03T09:49:35;40.53;;;25.67;;
78877;SDS011;68257;43.514;1.498;2023-03-03T10:05:45;32.40;;;24.17;;
78877;SDS011;68257;43.514;1.498;2023-03-03T10:13:38;29.73;;;24.42;;
78877;SDS011;68257;43.514;1.498;2023-03-03T10:19:31;28.77;;;24.27;;
78877;SDS011;68257;43.514;1.498;2023-03-03T10:24:46;29.77;;;23.73;;
78877;SDS011;68257;43.514;1.498;2023-03-03T10:28:02;29.80;;;22.27;;
78877;SDS011;68257;43.514;1.498;2023-03-03T10:33:50;29.38;;;23.60;;
78877;SDS011;68257;43.514;1.498;2023-03-03T10:36:44;30.98;;;22.83;;
78877;SDS011;68257;43.514;1.498;2023-03-03T10:39:13;29.83;;;22.97;;
78877;SDS011;68257;43.514;1.498;2023-03-03T10:50:10;29.80;;;23.40;;
78877;SDS011;68257;43.514;1.498;2023-03-03T11:00:35;29.55;;;21.83;;
78877;SDS011;68257;43.514;1.498;2023-03-03T11:08:55;29.75;;;22.58;;
78877;SDS011;68257;43.514;1.498;2023-03-03T11:11:47;28.80;;;20.90;;
78877;SDS011;68257;43.514;1.498;2023-03-03T11:14:25;28.75;;;20.92;;
78877;SDS011;68257;43.514;1.498;2023-03-03T11:25:26;27.95;;;20.50;;
78877;SDS011;68257;43.514;1.498;2023-03-03T11:33:09;30.30;;;21.43;;
78877;SDS011;68257;43.514;1.498;2023-03-03T11:35:45;29.67;;;19.48;;
78877;SDS011;68257;43.514;1.498;2023-03-03T11:38:23;28.92;;;20.95;;
78877;SDS011;68257;43.514;1.498;2023-03-03T11:40:54;25.48;;;18.55;;
78877;SDS011;68257;43.514;1.498;2023-03-03T11:43:44;27.13;;;18.88;;
78877;SDS011;68257;43.514;1.498;2023-03-03T11:46:29;26.77;;;19.17;;
78877;SDS011;68257;43.514;1.498;2023-03-03T11:49:00;27.45;;;18.60;;
78877;SDS011;68257;43.514;1.498;2023-03-03T11:54:37;25.77;;;18.70;;
78877;SDS011;68257;43.514;1.498;2023-03-03T11:57:13;28.20;;;20.65;;
78877;SDS011;68257;43.514;1.498;2023-03-03T11:59:58;27.70;;;21.03;;
78877;SDS011;68257;43.514;1.498;2023-03-03T12:02:43;26.70;;;20.15;;
78877;SDS011;68257;43.514;1.498;2023-03-03T12:05:26;25.00;;;20.10;;
78877;SDS011;68257;43.514;1.498;2023-03-03T12:11:14;25.38;;;20.55;;
78877;SDS011;68257;43.514;1.498;2023-03-03T12:25:03;26.23;;;19.15;;
78877;SDS011;68257;43.514;1.498;2023-03-03T12:30:09;27.25;;;21.25;;
78877;SDS011;68257;43.514;1.498;2023-03-03T12:40:34;28.52;;;20.15;;
78877;SDS011;68257;43.514;1.498;2023-03-03T12:53:53;28.23;;;20.58;;
78877;SDS011;68257;43.514;1.498;2023-03-03T12:59:15;27.30;;;20.80;;
78877;SDS011;68257;43.514;1.498;2023-03-03T13:01:51;27.13;;;19.45;;
78877;SDS011;68257;43.514;1.498;2023-03-03T13:07:22;26.27;;;19.13;;
78877;SDS011;68257;43.514;1.498;2023-03-03T13:15:12;26.10;;;18.90;;
78877;SDS011;68257;43.514;1.498;2023-03-03T13:20:52;27.60;;;21.60;;
78877;SDS011;68257;43.514;1.498;2023-03-03T13:26:05;27.57;;;20.10;;
78877;SDS011;68257;43.514;1.498;2023-03-03T13:31:40;26.17;;;19.73;;
78877;SDS011;68257;43.514;1.498;2023-03-03T13:37:31;28.00;;;19.73;;
78877;SDS011;68257;43.514;1.498;2023-03-03T13:42:59;28.50;;;20.27;;
78877;SDS011;68257;43.514;1.498;2023-03-03T13:45:29;27.98;;;19.92;;
78877;SDS011;68257;43.514;1.498;2023-03-03T13:52:03;28.92;;;19.85;;
78877;SDS011;68257;43.514;1.498;2023-03-03T14:01:58;28.05;;;18.83;;
78877;SDS011;68257;43.514;1.498;2023-03-03T14:07:02;30.77;;;20.10;;
78877;SDS011;68257;43.514;1.498;2023-03-03T14:17:59;29.67;;;18.52;;
78877;SDS011;68257;43.514;1.498;2023-03-03T14:20:44;26.35;;;18.55;;
78877;SDS011;68257;43.514;1.498;2023-03-03T14:23:15;29.45;;;19.13;;
78877;SDS011;68257;43.514;1.498;2023-03-03T14:25:58;29.02;;;19.70;;
78877;SDS011;68257;43.514;1.498;2023-03-03T14:28:37;27.73;;;18.70;;
78877;SDS011;68257;43.514;1.498;2023-03-03T14:31:09;28.00;;;18.75;;
78877;SDS011;68257;43.514;1.498;2023-03-03T14:33:44;29.55;;;19.38;;
78877;SDS011;68257;43.514;1.498;2023-03-03T14:36:24;34.58;;;22.55;;
78877;SDS011;68257;43.514;1.498;2023-03-03T14:38:52;28.48;;;19.58;;
78877;SDS011;68257;43.514;1.498;2023-03-03T14:41:19;29.03;;;19.80;;
78877;SDS011;68257;43.514;1.498;2023-03-03T14:44:20;28.73;;;19.88;;
78877;SDS011;68257;43.514;1.498;2023-03-03T14:49:37;29.52;;;20.27;;
78877;SDS011;68257;43.514;1.498;2023-03-03T14:54:42;28.25;;;18.13;;
78877;SDS011;68257;43.514;1.498;2023-03-03T14:57:15;27.13;;;18.23;;
78877;SDS011;68257;43.514;1.498;2023-03-03T15:02:26;27.83;;;17.30;;
78877;SDS011;68257;43.514;1.498;2023-03-03T15:05:07;29.67;;;18.20;;
78877;SDS011;68257;43.514;1.498;2023-03-03T15:07:37;29.30;;;17.70;;
78877;SDS011;68257;43.514;1.498;2023-03-03T15:10:04;25.13;;;17.38;;
78877;SDS011;68257;43.514;1.498;2023-03-03T15:15:18;22.07;;;14.30;;
78877;SDS011;68257;43.514;1.498;2023-03-03T15:23:11;23.02;;;14.15;;
78877;SDS011;68257;43.514;1.498;2023-03-03T15:43:02;26.73;;;16.58;;
78877;SDS011;68257;43.514;1.498;2023-03-03T15:51:16;26.00;;;16.38;;
78877;SDS011;68257;43.514;1.498;2023-03-03T16:04:48;26.73;;;17.17;;
78877;SDS011;68257;43.514;1.498;2023-03-03T16:12:56;28.08;;;19.10;;
78877;SDS011;68257;43.514;1.498;2023-03-03T16:17:58;25.38;;;16.15;;
78877;SDS011;68257;43.514;1.498;2023-03-03T16:20:43;27.10;;;16.98;;
78877;SDS011;68257;43.514;1.498;2023-03-03T16:23:29;30.58;;;18.75;;
78877;SDS011;68257;43.514;1.498;2023-03-03T16:26:07;26.85;;;16.30;;
78877;SDS011;68257;43.514;1.498;2023-03-03T16:28:42;27.05;;;17.58;;
78877;SDS011;68257;43.514;1.498;2023-03-03T16:31:20;26.30;;;17.63;;
78877;SDS011;68257;43.514;1.498;2023-03-03T16:39:42;24.05;;;15.27;;
78877;SDS011;68257;43.514;1.498;2023-03-03T16:42:25;25.55;;;15.32;;
78877;SDS011;68257;43.514;1.498;2023-03-03T16:50:24;27.13;;;16.00;;
78877;SDS011;68257;43.514;1.498;2023-03-03T16:55:31;24.77;;;15.60;;
78877;SDS011;68257;43.514;1.498;2023-03-03T17:06:44;25.27;;;16.88;;
78877;SDS011;68257;43.514;1.498;2023-03-03T17:12:17;27.77;;;17.05;;
78877;SDS011;68257;43.514;1.498;2023-03-03T17:18:28;29.27;;;18.13;;
78877;SDS011;68257;43.514;1.498;2023-03-03T17:20:37;30.17;;;18.63;;
78877;SDS011;68257;43.514;1.498;2023-03-03T17:31:33;32.20;;;18.65;;
78877;SDS011;68257;43.514;1.498;2023-03-03T17:50:35;32.42;;;18.45;;
78877;SDS011;68257;43.514;1.498;2023-03-03T17:53:31;35.70;;;20.58;;
78877;SDS011;68257;43.514;1.498;2023-03-03T17:56:06;36.78;;;20.38;;
78877;SDS011;68257;43.514;1.498;2023-03-03T18:01:15;30.73;;;18.45;;
78877;SDS011;68257;43.514;1.498;2023-03-03T18:09:08;37.55;;;22.48;;
78877;SDS011;68257;43.514;1.498;2023-03-03T18:22:28;37.65;;;20.35;;
78877;SDS011;68257;43.514;1.498;2023-03-03T18:24:58;36.90;;;22.45;;
78877;SDS011;68257;43.514;1.498;2023-03-03T18:27:34;39.63;;;22.33;;
78877;SDS011;68257;43.514;1.498;2023-03-03T18:35:24;44.67;;;24.90;;
78877;SDS011;68257;43.514;1.498;2023-03-03T18:37:51;43.15;;;24.40;;
78877;SDS011;68257;43.514;1.498;2023-03-03T18:42:42;40.80;;;23.27;;
78877;SDS011;68257;43.514;1.498;2023-03-03T18:45:54;40.97;;;23.85;;
78877;SDS011;68257;43.514;1.498;2023-03-03T18:48:02;42.85;;;23.67;;
78877;SDS011;68257;43.514;1.498;2023-03-03T18:50:35;43.63;;;24.07;;
78877;SDS011;68257;43.514;1.498;2023-03-03T18:55:45;37.35;;;21.95;;
78877;SDS011;68257;43.514;1.498;2023-03-03T19:00:48;35.87;;;22.40;;
78877;SDS011;68257;43.514;1.498;2023-03-03T19:03:25;38.72;;;22.42;;
78877;SDS011;68257;43.514;1.498;2023-03-03T19:05:51;47.10;;;24.40;;
78877;SDS011;68257;43.514;1.498;2023-03-03T19:08:25;82.72;;;34.40;;
78877;SDS011;68257;43.514;1.498;2023-03-03T19:15:59;92.22;;;40.50;;
78877;SDS011;68257;43.514;1.498;2023-03-03T19:18:26;69.43;;;34.73;;
78877;SDS011;68257;43.514;1.498;2023-03-03T19:23:24;70.15;;;38.45;;
78877;SDS011;68257;43.514;1.498;2023-03-03T19:34:28;45.78;;;28.05;;
78877;SDS011;68257;43.514;1.498;2023-03-03T19:45:30;54.53;;;27.97;;
78877;SDS011;68257;43.514;1.498;2023-03-03T19:48:03;51.33;;;28.83;;
78877;SDS011;68257;43.514;1.498;2023-03-03T19:51:08;50.05;;;26.25;;
78877;SDS011;68257;43.514;1.498;2023-03-03T19:53:42;43.33;;;24.42;;
78877;SDS011;68257;43.514;1.498;2023-03-03T20:15:39;45.80;;;25.45;;
78877;SDS011;68257;43.514;1.498;2023-03-03T20:26:38;50.93;;;27.80;;
78877;SDS011;68257;43.514;1.498;2023-03-03T20:31:53;49.10;;;27.55;;
78877;SDS011;68257;43.514;1.498;2023-03-03T20:34:41;52.47;;;26.83;;
78877;SDS011;68257;43.514;1.498;2023-03-03T20:37:12;46.53;;;24.90;;
78877;SDS011;68257;43.514;1.498;2023-03-03T20:39:47;48.57;;;25.87;;
78877;SDS011;68257;43.514;1.498;2023-03-03T20:48:09;54.58;;;28.65;;
78877;SDS011;68257;43.514;1.498;2023-03-03T20:51:04;52.97;;;28.17;;
78877;SDS011;68257;43.514;1.498;2023-03-03T20:53:41;115.80;;;56.47;;
78877;SDS011;68257;43.514;1.498;2023-03-03T20:57:06;184.38;;;85.57;;
78877;SDS011;68257;43.514;1.498;2023-03-03T20:59:19;117.28;;;54.38;;
78877;SDS011;68257;43.514;1.498;2023-03-03T21:04:42;61.10;;;33.50;;
78877;SDS011;68257;43.514;1.498;2023-03-03T21:07:07;56.23;;;31.50;;
78877;SDS011;68257;43.514;1.498;2023-03-03T21:09:34;57.50;;;34.10;;
78877;SDS011;68257;43.514;1.498;2023-03-03T21:12:11;61.80;;;34.72;;
78877;SDS011;68257;43.514;1.498;2023-03-03T21:15:05;55.67;;;31.40;;
78877;SDS011;68257;43.514;1.498;2023-03-03T21:17:32;51.50;;;28.70;;